Time;durP1;ratioP1;P1;durP2;ratioP2;P2;SDS_P1;SDS_P2;PMS_P1;PMS_P2;Temp;Humidity;BMP_temperature;BMP_pressure;BME280_temperature;BME280_humidity;BME280_pressure;Samples;Min_cycle;Max_cycle;Signal;HPM_P1;HPM_P2
2023/04/28 00:00:47;;;;;;;11.27;9.03;;;10.60;68.30;;;13.21;49.06;101700.56;5035835;28;20197;-63
2023/04/28 00:03:14;;;;;;;10.07;9.07;;;10.60;67.90;;;13.19;49.25;101700.72;5035391;28;20190;-62
2023/04/28 00:05:42;;;;;;;10.43;9.33;;;10.60;68.20;;;13.15;49.15;101701.22;5034791;28;20215;-62
2023/04/28 00:08:09;;;;;;;10.27;9.10;;;10.50;67.90;;;13.11;49.03;101692.81;5035671;28;20191;-59
2023/04/28 00:10:36;;;;;;;11.00;9.90;;;10.50;67.90;;;13.09;48.90;101693.97;5031172;28;20288;-60
2023/04/28 00:13:03;;;;;;;10.80;9.33;;;10.40;67.80;;;13.05;49.44;101697.94;5035898;28;20196;-62
2023/04/28 00:15:30;;;;;;;10.07;9.03;;;10.40;67.80;;;13.01;49.37;101694.78;5034999;28;20220;-62
2023/04/28 00:17:58;;;;;;;10.77;8.83;;;10.30;68.30;;;12.99;49.46;101688.84;5035794;28;20206;-63
2023/04/28 00:20:25;;;;;;;10.50;8.63;;;10.30;68.20;;;13.01;49.23;101686.03;5035232;28;20647;-64
2023/04/28 00:22:52;;;;;;;10.77;8.90;;;10.30;68.00;;;13.00;49.56;101682.56;5034458;28;20683;-62
2023/04/28 00:25:19;;;;;;;10.93;9.83;;;10.30;68.50;;;13.03;49.29;101679.56;5034360;28;20222;-62
2023/04/28 00:27:46;;;;;;;13.67;10.50;;;10.30;68.20;;;13.04;48.97;101670.66;5035447;28;20193;-62
2023/04/28 00:30:13;;;;;;;12.67;10.43;;;10.40;68.20;;;13.04;48.71;101670.66;5035292;28;20190;-62
2023/04/28 00:32:41;;;;;;;13.87;10.10;;;10.30;67.90;;;13.04;49.16;101669.84;5033727;28;20743;-61
2023/04/28 00:35:09;;;;;;;11.50;9.67;;;10.30;67.80;;;13.00;48.96;101669.38;5034250;28;20739;-64
2023/04/28 00:37:37;;;;;;;12.60;11.27;;;10.30;67.60;;;12.98;48.73;101665.22;5035485;28;20206;-62
2023/04/28 00:40:06;;;;;;;11.23;9.90;;;10.30;67.80;;;12.93;48.62;101663.09;5034847;28;20206;-61
2023/04/28 00:42:33;;;;;;;13.67;9.87;;;10.30;67.60;;;12.88;48.93;101657.47;5034765;28;20191;-63
2023/04/28 00:45:04;;;;;;;13.30;10.53;;;10.20;67.80;;;12.85;49.18;101655.16;5033874;28;20309;-63
2023/04/28 00:47:32;;;;;;;14.37;10.70;;;10.20;68.00;;;12.84;49.39;101653.50;5034874;28;20233;-62
2023/04/28 00:50:09;;;;;;;11.27;10.07;;;10.20;68.90;;;12.84;49.08;101653.50;5034666;28;20200;-63
2023/04/28 00:52:42;;;;;;;14.70;10.50;;;10.20;67.90;;;12.80;49.35;101646.91;5035558;28;20185;-62
2023/04/28 00:55:09;;;;;;;16.07;10.47;;;10.20;68.00;;;12.79;49.29;101643.44;5029964;28;20210;-62
2023/04/28 00:57:36;;;;;;;14.53;10.67;;;10.10;68.20;;;12.81;49.26;101641.44;5015445;28;20215;-62
2023/04/28 01:00:05;;;;;;;13.97;10.73;;;10.20;68.10;;;12.81;49.01;101635.38;5015370;28;20255;-64
2023/04/28 01:02:32;;;;;;;12.57;10.53;;;10.10;67.90;;;12.80;49.38;101631.88;5030840;28;20206;-62
2023/04/28 01:05:01;;;;;;;14.27;11.03;;;10.10;68.20;;;12.82;49.50;101631.72;5033329;28;20687;-63
2023/04/28 01:07:28;;;;;;;12.47;10.20;;;10.20;68.10;;;12.84;49.03;101629.72;5025869;28;20205;-63
2023/04/28 01:09:56;;;;;;;14.30;10.23;;;10.20;67.80;;;12.84;48.83;101630.56;5024234;28;20206;-63
2023/04/28 01:12:24;;;;;;;13.60;10.20;;;10.10;67.70;;;12.82;48.96;101616.69;5033702;28;20220;-61
2023/04/28 01:14:51;;;;;;;12.07;9.87;;;10.10;67.80;;;12.82;49.29;101629.06;5034113;28;20216;-62
2023/04/28 01:17:18;;;;;;;12.93;10.73;;;10.10;67.80;;;12.81;48.88;101616.88;5034168;28;20270;-60
2023/04/28 01:19:45;;;;;;;13.57;10.57;;;10.10;68.00;;;12.82;48.83;101615.84;5034664;28;20194;-61
2023/04/28 01:22:15;;;;;;;13.70;11.00;;;10.10;67.70;;;12.80;48.59;101625.78;5034469;28;20205;-64
2023/04/28 01:24:44;;;;;;;14.27;11.00;;;10.10;67.60;;;12.78;48.77;101619.84;5033463;28;20221;-63
2023/04/28 01:27:10;;;;;;;11.50;10.20;;;10.10;67.80;;;12.77;48.90;101621.66;5034015;28;20229;-63
2023/04/28 01:29:37;;;;;;;14.63;11.20;;;10.10;68.10;;;12.79;48.77;101618.81;5034307;28;20218;-65
2023/04/28 01:32:04;;;;;;;13.17;10.97;;;10.10;68.00;;;12.80;49.12;101615.22;5033771;28;20198;-61
2023/04/28 01:34:31;;;;;;;14.30;11.17;;;10.10;68.20;;;12.83;48.71;101609.59;5049432;28;20236;-63
2023/04/28 01:36:58;;;;;;;13.57;10.93;;;10.10;68.00;;;12.84;49.04;101605.94;5034086;28;20196;-61
2023/04/28 01:39:25;;;;;;;14.40;11.10;;;10.10;68.00;;;12.87;48.81;101601.16;5034267;28;20453;-62
2023/04/28 01:41:53;;;;;;;13.67;11.77;;;10.10;67.80;;;12.89;48.54;101598.34;5032868;28;20202;-60
2023/04/28 01:44:20;;;;;;;15.60;11.47;;;10.10;67.50;;;12.87;48.43;101589.75;5049423;28;20671;-62
2023/04/28 01:46:47;;;;;;;12.27;10.10;;;10.10;67.30;;;12.84;48.26;101587.44;5033864;28;20225;-62
2023/04/28 01:49:15;;;;;;;13.30;10.57;;;10.10;66.90;;;12.78;48.09;101585.50;5034445;28;20191;-65
2023/04/28 01:51:42;;;;;;;12.33;10.90;;;10.10;66.90;;;12.71;48.30;101589.81;5033890;28;20194;-61
2023/04/28 01:54:09;;;;;;;12.30;10.20;;;10.00;66.90;;;12.66;48.88;101576.25;5033503;28;20253;-63
2023/04/28 01:56:36;;;;;;;13.53;10.30;;;10.00;67.40;;;12.64;48.71;101584.38;5032530;28;20205;-62
2023/04/28 01:59:05;;;;;;;12.13;10.50;;;10.00;67.50;;;12.61;48.53;101573.28;5030082;28;20222;-63
2023/04/28 02:01:32;;;;;;;12.70;10.47;;;9.90;68.30;;;12.56;48.71;101575.59;5043709;28;20205;-62
2023/04/28 02:03:59;;;;;;;13.87;10.03;;;9.90;68.40;;;12.51;48.73;101572.63;5033326;28;20215;-60
2023/04/28 02:06:26;;;;;;;10.60;9.50;;;9.80;69.30;;;12.46;48.38;101565.22;5034261;28;20190;-62
2023/04/28 02:08:53;;;;;;;13.93;10.23;;;9.80;68.30;;;12.42;48.79;101563.06;5033402;28;20193;-63
2023/04/28 02:11:20;;;;;;;12.07;9.13;;;9.80;68.70;;;12.41;48.74;101556.16;5032753;28;20199;-62
2023/04/28 02:13:47;;;;;;;11.97;9.03;;;9.80;68.70;;;12.40;48.98;101559.78;5033576;28;20213;-62
2023/04/28 02:16:15;;;;;;;11.20;9.17;;;9.70;68.60;;;12.37;48.53;101553.03;5033947;28;20196;-61
2023/04/28 02:18:43;;;;;;;11.17;9.40;;;9.70;68.40;;;12.34;48.86;101552.53;5028731;28;20219;-63
2023/04/28 02:21:11;;;;;;;15.30;10.13;;;9.70;68.80;;;12.29;48.82;101545.09;5022201;28;20194;-60
2023/04/28 02:23:38;;;;;;;10.93;9.33;;;9.60;68.60;;;12.27;49.17;101543.59;5032639;28;20207;-61
2023/04/28 02:26:06;;;;;;;10.83;8.87;;;9.60;68.60;;;12.27;49.25;101551.53;5033570;28;20218;-62
2023/04/28 02:28:33;;;;;;;11.97;9.60;;;9.60;68.90;;;12.29;49.05;101536.38;5034631;28;20194;-61
2023/04/28 02:31:05;;;;;;;14.63;9.43;;;9.60;69.60;;;12.28;48.83;101535.53;5037400;28;20199;-63
2023/04/28 02:33:33;;;;;;;11.80;8.60;;;9.60;68.40;;;12.28;48.58;101532.91;5036768;28;20239;-62
2023/04/28 02:36:02;;;;;;;10.17;8.07;;;9.60;68.30;;;12.28;48.96;101538.19;5037696;28;20218;-63
2023/04/28 02:38:30;;;;;;;10.50;8.07;;;9.60;68.40;;;12.28;48.44;101534.72;5037925;28;20297;-60
2023/04/28 02:40:58;;;;;;;11.37;8.67;;;9.60;68.10;;;12.26;48.74;101521.69;5037285;28;20276;-61
2023/04/28 02:43:25;;;;;;;11.70;8.20;;;9.60;68.30;;;12.27;48.38;101520.69;5037141;28;20198;-63
2023/04/28 02:45:53;;;;;;;11.87;9.33;;;9.60;68.10;;;12.28;48.23;101516.25;5037565;28;20223;-62
2023/04/28 02:48:20;;;;;;;9.23;8.33;;;9.50;68.00;;;12.30;48.68;101511.59;5037146;28;20595;-62
2023/04/28 02:50:49;;;;;;;9.60;8.40;;;9.50;68.20;;;12.33;48.57;101506.84;5041625;28;20205;-62
2023/04/28 02:53:16;;;;;;;10.10;8.50;;;9.60;68.50;;;12.38;48.32;101504.53;5036563;28;20220;-61
2023/04/28 02:55:43;;;;;;;9.57;7.53;;;9.60;68.20;;;12.39;48.04;101500.03;5052445;28;20225;-63
2023/04/28 02:58:10;;;;;;;9.97;8.23;;;9.60;67.70;;;12.38;47.76;101493.97;5035645;28;20313;-60
2023/04/28 03:00:37;;;;;;;13.20;8.50;;;9.60;67.40;;;12.35;47.79;101482.91;5036405;28;20262;-63
2023/04/28 03:03:04;;;;;;;8.60;7.57;;;9.60;67.00;;;12.33;47.55;101490.16;5036439;28;20197;-62
2023/04/28 03:05:31;;;;;;;8.37;7.50;;;9.60;67.20;;;12.29;47.93;101483.59;5036419;28;20260;-60
2023/04/28 03:08:00;;;;;;;8.53;7.63;;;9.60;67.10;;;12.27;48.30;101482.91;5036833;28;20608;-62
2023/04/28 03:10:27;;;;;;;9.33;7.80;;;9.50;67.30;;;12.23;47.63;101474.50;5036441;28;20212;-62
2023/04/28 03:12:54;;;;;;;8.60;7.70;;;9.50;67.10;;;12.18;48.21;101472.38;5036497;28;20209;-62
2023/04/28 03:15:21;;;;;;;10.97;8.20;;;9.50;67.20;;;12.16;48.09;101469.09;5035758;28;20223;-60
2023/04/28 03:17:48;;;;;;;10.30;7.70;;;9.50;67.50;;;12.13;48.49;101464.13;5036861;28;20201;-61
2023/04/28 03:20:15;;;;;;;9.73;7.90;;;9.50;67.30;;;12.11;48.42;101460.84;5038170;28;20201;-59
2023/04/28 03:22:42;;;;;;;9.47;7.73;;;9.50;67.30;;;12.09;48.00;101457.53;5036878;28;20198;-59
2023/04/28 03:25:10;;;;;;;9.57;6.97;;;9.40;67.30;;;12.10;48.33;101453.91;5035660;28;20218;-60
2023/04/28 03:27:37;;;;;;;7.90;7.03;;;9.40;67.30;;;12.10;47.94;101453.91;5036635;28;20199;-61
2023/04/28 03:30:06;;;;;;;10.00;7.73;;;9.40;67.20;;;12.11;48.08;101447.63;5036458;28;20204;-63
2023/04/28 03:32:33;;;;;;;8.67;7.70;;;9.40;67.30;;;12.12;48.11;101451.13;5051353;28;20199;-62
2023/04/28 03:35:00;;;;;;;10.77;7.67;;;9.40;66.90;;;12.12;47.93;101446.63;5034606;28;20276;-59
2023/04/28 03:37:27;;;;;;;8.77;7.60;;;9.40;66.70;;;12.11;47.53;101437.09;5036546;28;20594;-60
2023/04/28 03:39:54;;;;;;;7.90;7.00;;;9.40;66.50;;;12.08;47.69;101440.06;5034684;28;20223;-60
2023/04/28 03:42:22;;;;;;;8.37;6.43;;;9.40;66.50;;;12.10;47.96;101435.44;5036350;28;20662;-61
2023/04/28 03:44:49;;;;;;;8.90;6.80;;;9.40;66.70;;;12.11;47.62;101426.53;5035494;28;20218;-60
2023/04/28 03:47:16;;;;;;;10.60;7.47;;;9.40;66.80;;;12.11;47.27;101426.53;5036350;28;20202;-58
2023/04/28 03:49:43;;;;;;;8.23;6.47;;;9.40;66.20;;;12.11;47.09;101423.91;5036235;28;20201;-61
2023/04/28 03:52:10;;;;;;;11.63;9.10;;;9.40;65.80;;;12.07;47.16;101419.94;5036696;28;20197;-61
2023/04/28 03:54:37;;;;;;;8.40;6.37;;;9.40;66.10;;;12.06;46.96;101414.81;5035802;28;20221;-59
2023/04/28 03:57:04;;;;;;;7.03;6.43;;;9.40;66.10;;;12.07;46.99;101404.13;5036484;28;20197;-62
2023/04/28 03:59:32;;;;;;;8.03;6.07;;;9.30;65.70;;;12.05;47.07;101408.72;5035374;28;20235;-62
2023/04/28 04:01:59;;;;;;;6.83;6.10;;;9.30;65.50;;;12.02;46.97;101406.44;5035931;28;20201;-63
2023/04/28 04:04:26;;;;;;;9.53;6.60;;;9.30;65.50;;;12.02;47.03;101395.88;5034425;28;20218;-61
2023/04/28 04:06:54;;;;;;;7.23;6.53;;;9.30;65.70;;;12.02;46.67;101403.78;5036281;28;20300;-62
2023/04/28 04:09:22;;;;;;;7.93;5.90;;;9.30;65.70;;;12.01;46.63;101391.59;5035470;28;20222;-61
2023/04/28 04:11:49;;;;;;;9.07;6.17;;;9.30;65.50;;;12.05;47.01;101400.81;5035674;28;20198;-60
2023/04/28 04:14:16;;;;;;;8.50;6.87;;;9.20;65.80;;;12.08;46.60;101394.38;5033855;28;20222;-61
2023/04/28 04:16:46;;;;;;;9.50;6.67;;;9.30;65.70;;;12.11;47.17;101392.22;5051113;28;20199;-60
2023/04/28 04:19:13;;;;;;;7.73;6.10;;;9.30;66.20;;;12.16;46.68;101389.91;5035216;28;20644;-60
2023/04/28 04:21:40;;;;;;;8.83;6.23;;;9.30;65.70;;;12.19;46.38;101389.56;5035689;28;20715;-62
2023/04/28 04:24:07;;;;;;;8.40;6.40;;;9.40;65.50;;;12.22;46.62;101381.31;5034568;28;20237;-60
2023/04/28 04:26:34;;;;;;;7.77;5.90;;;9.40;65.40;;;12.24;46.52;101374.03;5034372;28;20202;-61
2023/04/28 04:29:01;;;;;;;6.43;5.60;;;9.40;65.10;;;12.28;46.43;101371.06;5034942;28;20198;-65
2023/04/28 04:31:28;;;;;;;8.87;5.60;;;9.40;64.90;;;12.27;46.45;101372.03;5035589;28;20206;-63
2023/04/28 04:33:57;;;;;;;6.43;5.83;;;9.40;64.60;;;12.28;45.77;101368.44;5035518;28;20195;-62
2023/04/28 04:36:24;;;;;;;6.97;6.13;;;9.50;64.60;;;12.27;46.08;101364.97;5035704;28;20217;-62
2023/04/28 04:38:51;;;;;;;8.47;6.00;;;9.50;64.50;;;12.28;46.11;101365.78;5034520;28;20219;-62
2023/04/28 04:41:20;;;;;;;6.47;5.70;;;9.50;64.70;;;12.29;45.70;101357.69;5034626;28;20667;-62
2023/04/28 04:43:47;;;;;;;6.63;5.93;;;9.50;64.40;;;12.33;46.14;101352.91;5033467;28;20220;-60
2023/04/28 04:46:14;;;;;;;7.13;5.90;;;9.50;64.20;;;12.35;45.59;101350.91;5035408;28;20213;-62
2023/04/28 04:48:42;;;;;;;7.80;6.30;;;9.50;63.90;;;12.37;45.66;101343.66;5033961;28;20289;-63
2023/04/28 04:51:10;;;;;;;7.33;5.20;;;9.60;63.90;;;12.38;45.40;101346.13;5034224;28;20194;-62
2023/04/28 04:53:37;;;;;;;7.17;5.80;;;9.60;63.50;;;12.40;45.35;101341.50;5035009;28;20228;-62
2023/04/28 04:56:05;;;;;;;6.73;6.03;;;9.60;63.50;;;12.39;45.17;101339.84;5035331;28;20214;-62
2023/04/28 04:58:32;;;;;;;7.37;5.50;;;9.60;63.20;;;12.41;45.27;101335.22;5034755;28;20249;-62
2023/04/28 05:00:59;;;;;;;8.77;5.77;;;9.60;63.30;;;12.42;45.24;101333.41;5034431;28;20194;-61
2023/04/28 05:03:26;;;;;;;10.87;5.60;;;9.60;62.90;;;12.43;45.08;101337.69;5034101;28;20599;-60
2023/04/28 05:05:53;;;;;;;8.17;6.00;;;9.60;62.90;;;12.44;45.11;101339.31;5034639;28;20779;-63
2023/04/28 05:08:22;;;;;;;9.07;6.50;;;9.60;62.80;;;12.46;44.85;101334.69;5034461;28;20289;-63
2023/04/28 05:10:49;;;;;;;6.60;5.83;;;9.60;62.80;;;12.50;44.91;101334.19;5033908;28;20511;-60
2023/04/28 05:13:16;;;;;;;7.30;5.37;;;9.60;62.60;;;12.53;44.84;101340.94;5033972;28;20200;-63
2023/04/28 05:15:43;;;;;;;4.77;4.30;;;9.70;62.60;;;12.55;44.54;101337.13;5033452;28;20741;-59
2023/04/28 05:18:10;;;;;;;7.03;5.80;;;9.70;62.20;;;12.58;44.45;101341.25;5034145;28;20198;-64
2023/04/28 05:20:37;;;;;;;8.33;5.57;;;9.70;62.20;;;12.62;44.21;101337.28;5033789;28;20264;-63
2023/04/28 05:23:05;;;;;;;5.97;5.37;;;9.70;62.20;;;12.65;44.46;101336.91;5033791;28;20202;-61
2023/04/28 05:25:34;;;;;;;6.17;5.10;;;9.80;62.10;;;12.68;44.29;101337.41;5033160;28;20222;-61
2023/04/28 05:28:06;;;;;;;6.93;4.60;;;9.70;62.00;;;12.76;44.04;101336.53;5032829;28;20209;-61
2023/04/28 05:30:33;;;;;;;5.57;4.70;;;9.80;62.10;;;12.82;43.74;101335.81;5033388;28;20197;-62
2023/04/28 05:33:00;;;;;;;5.70;4.87;;;9.80;61.70;;;12.86;43.30;101330.03;5033838;28;20233;-63
2023/04/28 05:35:27;;;;;;;8.03;5.10;;;9.90;62.20;;;12.92;43.61;101325.88;5033419;28;20249;-61
2023/04/28 05:37:54;;;;;;;5.33;4.83;;;9.90;61.20;;;12.97;43.29;101330.63;5032040;28;20309;-65
2023/04/28 05:40:21;;;;;;;7.80;5.87;;;10.00;59.80;;;12.99;42.67;101326.81;5031669;28;20211;-61
2023/04/28 05:42:50;;;;;;;7.23;5.00;;;10.00;59.40;;;13.04;42.75;101327.09;5034171;28;20248;-62
2023/04/28 05:45:17;;;;;;;5.53;4.77;;;10.10;59.40;;;13.09;42.72;101324.78;5032165;28;20264;-65
2023/04/28 05:47:44;;;;;;;5.57;4.30;;;10.10;59.00;;;13.15;42.61;101318.78;5032781;28;20206;-63
2023/04/28 05:50:11;;;;;;;7.80;4.60;;;10.20;58.90;;;13.22;42.41;101311.78;5033916;28;20202;-61
2023/04/28 05:52:38;;;;;;;5.13;4.27;;;10.20;58.60;;;13.27;42.21;101312.09;5033491;28;20639;-63
2023/04/28 05:55:07;;;;;;;4.63;4.23;;;10.30;58.30;;;13.32;41.77;101304.44;5032693;28;20225;-63
2023/04/28 05:57:34;;;;;;;6.63;4.50;;;10.40;58.20;;;13.39;41.59;101307.19;5033634;28;20195;-64
2023/04/28 06:00:17;;;;;;;5.47;4.53;;;10.40;57.40;;;13.44;41.39;101308.31;5033777;28;20207;-64
2023/04/28 06:02:44;;;;;;;5.67;4.23;;;10.50;57.30;;;13.52;41.05;101302.97;5032548;28;20644;-64
2023/04/28 06:05:11;;;;;;;4.57;3.80;;;10.50;56.90;;;13.62;40.94;101309.81;5032176;28;20235;-64
2023/04/28 06:07:39;;;;;;;6.40;4.20;;;10.60;56.70;;;13.72;40.66;101305.06;5033871;28;20190;-61
2023/04/28 06:10:08;;;;;;;4.90;4.30;;;10.70;56.60;;;13.84;40.41;101298.31;5048438;28;20191;-61
2023/04/28 06:12:36;;;;;;;6.47;4.53;;;10.80;56.50;;;13.93;40.30;101302.53;5033471;28;20194;-63
2023/04/28 06:15:05;;;;;;;10.60;4.33;;;10.90;56.20;;;14.02;39.79;101296.16;5032850;28;20218;-62
2023/04/28 06:17:33;;;;;;;5.30;3.70;;;10.90;55.70;;;14.05;39.19;101298.41;5033943;28;20187;-62
2023/04/28 06:20:00;;;;;;;6.80;4.30;;;11.00;55.20;;;14.11;39.60;101300.34;5033356;28;20248;-62
2023/04/28 06:22:27;;;;;;;4.67;4.20;;;11.10;55.40;;;14.15;39.48;101296.31;5032715;28;20206;-63
2023/04/28 06:24:54;;;;;;;5.67;3.60;;;11.10;55.10;;;14.21;39.29;101306.97;5032793;28;20225;-64
2023/04/28 06:27:21;;;;;;;7.30;4.77;;;11.20;55.50;;;14.27;39.07;101302.78;5033429;28;20285;-66
2023/04/28 06:29:48;;;;;;;6.30;4.07;;;11.20;54.70;;;14.34;39.32;101301.06;5033843;28;20186;-61
2023/04/28 06:32:15;;;;;;;6.90;5.53;;;11.30;54.80;;;14.43;39.13;101297.31;5032860;28;20194;-64
2023/04/28 06:34:44;;;;;;;4.47;3.90;;;11.40;54.70;;;14.52;38.89;101298.03;5028385;28;20294;-64
2023/04/28 06:37:11;;;;;;;6.13;5.43;;;11.40;54.30;;;14.57;38.78;101291.16;5021410;28;20615;-66
2023/04/28 06:39:38;;;;;;;6.23;3.90;;;11.50;54.20;;;14.66;38.89;101290.06;5033230;28;20229;-63
2023/04/28 06:42:05;;;;;;;6.57;3.73;;;11.60;54.30;;;14.79;38.58;101290.19;5048089;28;20199;-63
2023/04/28 06:44:32;;;;;;;4.67;3.67;;;11.60;54.30;;;14.88;38.37;101294.34;5032812;28;20595;-63
2023/04/28 06:47:02;;;;;;;5.03;3.70;;;11.70;53.90;;;14.97;38.33;101289.75;5033690;28;20179;-62
2023/04/28 06:49:29;;;;;;;8.60;5.07;;;11.80;53.80;;;15.08;38.16;101296.38;5033273;28;20647;-62
2023/04/28 06:51:57;;;;;;;4.63;4.00;;;11.90;53.60;;;15.20;38.06;101287.72;5032869;28;20557;-63
2023/04/28 06:54:24;;;;;;;7.60;5.07;;;12.00;53.50;;;15.34;37.47;101284.16;5032505;28;20230;-63
2023/04/28 06:56:51;;;;;;;8.57;4.20;;;12.10;53.40;;;15.50;37.29;101291.03;5032808;28;20195;-63
2023/04/28 06:59:18;;;;;;;4.73;3.63;;;12.20;53.20;;;15.68;36.64;101286.09;5032545;28;20618;-62
2023/04/28 07:01:45;;;;;;;9.43;4.10;;;12.40;52.40;;;15.88;36.82;101273.72;5032773;28;20191;-63
2023/04/28 07:04:12;;;;;;;6.63;4.43;;;12.50;52.70;;;16.04;36.62;101273.44;5028209;28;20247;-64
2023/04/28 07:06:40;;;;;;;6.20;3.80;;;12.70;51.90;;;16.13;36.07;101274.91;5047850;28;20297;-67
2023/04/28 07:09:08;;;;;;;9.53;6.93;;;12.80;51.30;;;16.27;36.18;101267.81;5032833;28;20547;-62
2023/04/28 07:11:35;;;;;;;6.73;4.10;;;12.90;51.60;;;16.41;35.83;101260.69;5033226;28;20197;-63
2023/04/28 07:14:02;;;;;;;7.37;4.40;;;13.10;51.40;;;16.50;35.33;101260.31;5031278;28;20306;-63
2023/04/28 07:16:29;;;;;;;5.20;3.83;;;13.20;50.40;;;16.56;35.35;101254.25;5039919;28;20202;-64
2023/04/28 07:18:57;;;;;;;3.80;3.50;;;13.30;50.40;;;16.60;35.32;101252.81;5036168;28;20195;-61
2023/04/28 07:21:24;;;;;;;5.43;3.57;;;13.40;50.20;;;16.66;35.21;101248.53;5036866;28;20265;-64
2023/04/28 07:23:50;;;;;;;6.30;3.30;;;13.40;50.10;;;16.71;35.24;101256.72;5035006;28;20207;-62
2023/04/28 07:26:19;;;;;;;6.53;4.10;;;13.50;50.60;;;16.73;34.22;101254.69;5056307;28;20609;-65
2023/04/28 07:28:46;;;;;;;5.63;3.37;;;13.50;48.90;;;16.70;34.83;101253.25;5042287;28;20636;-64
2023/04/28 07:31:14;;;;;;;7.00;4.70;;;13.60;49.00;;;16.78;34.72;101252.25;5036239;28;20213;-63
2023/04/28 07:33:41;;;;;;;7.50;4.30;;;13.70;49.10;;;16.92;34.85;101253.91;5047334;28;20191;-62
2023/04/28 07:36:08;;;;;;;7.43;4.57;;;13.70;49.20;;;16.89;34.45;101259.63;5028803;28;20257;-63
2023/04/28 07:38:35;;;;;;;4.73;4.20;;;13.70;48.00;;;16.88;34.30;101257.97;5036246;28;20281;-62
2023/04/28 07:41:03;;;;;;;4.77;3.83;;;13.80;48.10;;;16.94;34.26;101257.16;5035653;28;20352;-63
2023/04/28 07:43:34;;;;;;;7.00;4.03;;;13.90;47.90;;;16.89;34.24;101259.63;5035798;28;20194;-63
2023/04/28 07:46:01;;;;;;;6.20;4.90;;;13.90;47.50;;;16.71;34.52;101262.06;5034806;28;20683;-62
2023/04/28 07:48:28;;;;;;;6.17;4.30;;;13.80;47.10;;;16.67;34.47;101253.66;5035628;28;20194;-62
2023/04/28 07:50:55;;;;;;;7.37;4.40;;;13.90;47.50;;;16.66;34.43;101248.53;5034722;28;20197;-61
2023/04/28 07:53:22;;;;;;;7.17;4.73;;;13.90;47.30;;;16.56;35.05;101248.94;5035441;28;20626;-63
2023/04/28 07:55:50;;;;;;;6.07;5.00;;;13.90;47.70;;;16.58;35.11;101246.06;5036121;28;20215;-65
2023/04/28 07:58:17;;;;;;;5.67;4.90;;;13.90;47.70;;;16.58;35.05;101241.56;5036445;28;20533;-63
2023/04/28 08:00:45;;;;;;;6.10;4.87;;;13.90;47.90;;;16.61;34.89;101238.50;5035553;28;20214;-64
2023/04/28 08:03:12;;;;;;;7.63;5.20;;;13.90;47.70;;;16.68;34.71;101243.84;5034876;28;20214;-62
2023/04/28 08:05:41;;;;;;;6.63;5.20;;;13.90;47.70;;;16.82;34.74;101248.97;5031708;28;20519;-65
2023/04/28 08:08:08;;;;;;;5.47;4.40;;;14.00;47.80;;;16.94;34.52;101238.56;5033849;28;20260;-62
2023/04/28 08:10:36;;;;;;;5.13;4.63;;;14.00;47.70;;;17.06;34.32;101239.59;5035162;28;20199;-65
2023/04/28 08:13:03;;;;;;;6.37;4.60;;;14.10;47.40;;;17.28;34.08;101235.66;5035564;28;20198;-62
2023/04/28 08:15:30;;;;;;;6.70;5.47;;;14.20;47.50;;;17.42;33.80;101231.16;5035196;28;20587;-62
2023/04/28 08:17:59;;;;;;;6.07;5.03;;;14.30;47.10;;;17.51;33.57;101238.78;5035779;28;20194;-62
2023/04/28 08:20:26;;;;;;;9.27;5.37;;;14.40;46.80;;;17.53;33.86;101242.03;5036094;28;20222;-65
2023/04/28 08:22:53;;;;;;;6.47;5.23;;;14.50;46.60;;;17.60;33.65;101226.03;5035745;28;20190;-62
2023/04/28 08:25:21;;;;;;;7.70;5.60;;;14.70;46.50;;;17.57;33.77;101227.28;5034728;28;20233;-64
2023/04/28 08:27:48;;;;;;;8.50;6.00;;;14.70;46.30;;;17.71;33.72;101229.91;5036013;28;20644;-64
2023/04/28 08:30:15;;;;;;;7.17;4.97;;;14.80;46.60;;;17.72;33.16;101234.19;5035701;28;20271;-62
2023/04/28 08:32:43;;;;;;;6.97;5.40;;;14.80;45.90;;;17.58;33.63;101226.25;5035622;28;20542;-64
2023/04/28 08:35:11;;;;;;;8.97;5.03;;;14.80;46.00;;;17.39;34.20;101229.75;5033374;28;20541;-63
2023/04/28 08:37:38;;;;;;;6.93;5.23;;;14.80;46.00;;;17.35;34.25;101222.38;5035262;28;20199;-62
2023/04/28 08:40:10;;;;;;;9.00;5.27;;;14.80;46.30;;;17.44;34.43;101221.97;5034826;28;20297;-63
2023/04/28 08:42:38;;;;;;;6.73;4.33;;;14.80;46.60;;;17.66;34.34;101219.06;5035460;28;20194;-62
2023/04/28 08:45:11;;;;;;;6.37;5.00;;;14.90;47.10;;;17.85;34.18;101212.88;5033038;28;20210;-66
2023/04/28 08:47:44;;;;;;;7.17;5.30;;;14.90;47.20;;;17.96;33.84;101222.88;5035437;28;20201;-62
2023/04/28 08:50:13;;;;;;;8.67;5.37;;;14.90;46.80;;;17.99;33.87;101219.78;5022256;28;20233;-64
2023/04/28 08:52:44;;;;;;;6.28;5.55;;;15.00;46.70;;;18.34;33.45;101223.72;5031251;28;20926;-62
2023/04/28 08:55:12;;;;;;;9.17;5.80;;;15.00;47.00;;;18.11;33.91;101218.09;5031729;28;20221;-65
2023/04/28 08:57:43;;;;;;;6.33;5.50;;;15.10;46.90;;;18.18;34.00;101217.00;5033077;28;20182;-62
2023/04/28 09:00:12;;;;;;;6.57;5.40;;;15.20;47.10;;;18.26;33.63;101214.13;5032325;28;20256;-62
2023/04/28 09:02:41;;;;;;;7.93;5.47;;;15.20;46.80;;;18.29;33.92;101212.88;5032517;28;20313;-62
2023/04/28 09:05:10;;;;;;;6.73;5.27;;;15.40;47.00;;;18.41;33.94;101207.69;5029188;28;20310;-64
2023/04/28 09:07:42;;;;;;;6.43;5.23;;;15.40;46.80;;;18.43;34.08;101205.63;5029476;28;20201;-64
2023/04/28 09:10:19;;;;;;;9.27;5.50;;;15.50;46.80;;;18.40;33.77;101203.41;5036309;28;20191;-65
2023/04/28 09:12:50;;;;;;;8.53;5.93;;;15.50;46.70;;;18.47;33.68;101202.34;5034422;28;20198;-63
2023/04/28 09:15:30;;;;;;;6.93;6.10;;;15.60;46.70;;;19.01;32.60;101203.59;5031981;28;20532;-61
2023/04/28 09:18:01;;;;;;;7.47;6.10;;;15.60;46.70;;;18.65;33.23;101207.78;5033201;28;20208;-65
2023/04/28 09:20:31;;;;;;;9.00;6.40;;;15.60;46.20;;;18.55;33.34;101199.41;5026701;28;20226;-64
2023/04/28 09:23:15;;;;;;;7.33;6.63;;;15.60;46.30;;;18.47;33.58;101210.34;5031261;28;20546;-64
2023/04/28 09:25:58;;;;;;;7.67;5.93;;;15.60;46.40;;;18.50;33.92;101212.56;5032357;28;20210;-64
2023/04/28 09:28:25;;;;;;;6.50;5.90;;;15.70;46.80;;;18.59;33.96;101211.28;5031448;28;20517;-62
2023/04/28 09:30:52;;;;;;;7.23;4.97;;;15.70;46.80;;;18.56;33.78;101201.06;5031059;28;20289;-62
2023/04/28 09:33:20;;;;;;;9.30;5.93;;;15.70;46.70;;;18.61;33.99;101201.22;5033162;28;20197;-63
2023/04/28 09:35:48;;;;;;;7.77;5.90;;;15.70;46.90;;;18.68;34.08;101202.00;5031617;28;20264;-64
2023/04/28 09:38:19;;;;;;;7.50;5.70;;;15.80;47.10;;;18.73;33.87;101206.69;5033966;28;20194;-64
2023/04/28 09:40:52;;;;;;;6.90;5.80;;;15.80;47.10;;;18.85;34.19;101204.97;5030411;28;20222;-62
2023/04/28 09:43:27;;;;;;;7.37;5.83;;;15.90;47.70;;;18.91;34.09;101202.25;5032473;28;20231;-63
2023/04/28 09:45:56;;;;;;;7.07;5.73;;;15.90;47.30;;;18.98;34.33;101201.34;5032151;28;20230;-62
2023/04/28 09:48:29;;;;;;;7.95;6.20;;;16.00;47.80;;;19.30;34.30;101208.28;5030022;28;20436;-63
2023/04/28 09:50:58;;;;;;;10.70;5.80;;;16.00;48.50;;;19.30;34.25;101202.94;5031641;28;20223;-65
2023/04/28 09:53:27;;;;;;;7.83;6.10;;;16.10;48.60;;;19.12;34.20;101197.53;5032411;28;20187;-63
2023/04/28 09:55:57;;;;;;;8.97;6.80;;;16.10;48.20;;;19.08;34.58;101197.16;5032256;28;20622;-63
2023/04/28 09:58:26;;;;;;;7.07;6.33;;;16.10;48.40;;;19.06;35.00;101195.75;5031581;28;20524;-64
2023/04/28 10:00:56;;;;;;;7.43;6.20;;;16.20;48.80;;;18.98;35.62;101193.34;5014489;28;20600;-61
2023/04/28 10:03:26;;;;;;;6.80;5.27;;;16.10;49.40;;;19.14;36.12;101192.78;5031816;28;20183;-61
2023/04/28 10:05:57;;;;;;;9.57;6.33;;;16.20;50.40;;;19.43;36.02;101192.13;5033240;28;20253;-63
2023/04/28 10:08:26;;;;;;;10.33;6.77;;;16.30;51.60;;;19.70;36.49;101188.16;5032203;28;20547;-61
2023/04/28 10:10:55;;;;;;;9.90;7.60;;;16.40;52.80;;;19.81;35.89;101181.22;5032442;28;20210;-63
2023/04/28 10:13:23;;;;;;;7.95;7.15;;;16.50;51.60;;;20.21;35.84;101190.38;5035479;28;20759;-62
2023/04/28 10:15:54;;;;;;;8.83;6.80;;;16.50;52.10;;;20.09;34.92;101182.31;5033074;28;20214;-61